createdAt,value
2023-05-18T00:02:26.823Z,75.32
2023-05-18T00:04:55.406Z,75.24
2023-05-18T00:07:23.617Z,75.88
2023-05-18T00:09:51.750Z,75.92
2023-05-18T00:12:19.859Z,76.42
2023-05-18T00:14:47.976Z,76.73
2023-05-18T00:17:16.179Z,77.51
2023-05-18T00:19:46.942Z,78.70
2023-05-18T00:22:18.807Z,78.57
2023-05-18T00:24:47.881Z,78.09
2023-05-18T00:27:16.201Z,78.90
2023-05-18T00:29:44.360Z,78.91
2023-05-18T00:32:13.472Z,79.39
2023-05-18T00:34:41.681Z,79.24
2023-05-18T00:37:09.901Z,79.17
2023-05-18T00:39:38.013Z,79.31
2023-05-18T00:42:06.430Z,79.07
2023-05-18T00:44:34.660Z,78.58
2023-05-18T00:47:02.876Z,79.29
2023-05-18T00:49:31.498Z,78.84
2023-05-18T00:51:59.738Z,79.71
2023-05-18T00:54:28.240Z,79.83
2023-05-18T00:57:02.215Z,79.65
2023-05-18T00:59:31.020Z,80.00
2023-05-18T01:01:59.383Z,79.64
2023-05-18T01:04:28.175Z,79.93
2023-05-18T01:06:56.881Z,80.11
2023-05-18T01:09:25.707Z,80.97
2023-05-18T01:12:17.455Z,80.69
2023-05-18T01:14:52.758Z,80.85
2023-05-18T01:17:22.025Z,80.24
2023-05-18T01:20:38.266Z,80.05
2023-05-18T01:23:41.728Z,79.92
2023-05-18T01:26:15.611Z,79.93
2023-05-18T01:28:46.726Z,79.68
2023-05-18T01:31:16.616Z,79.72
2023-05-18T01:33:45.325Z,79.71
2023-05-18T01:36:13.729Z,79.21
2023-05-18T01:38:44.077Z,79.12
2023-05-18T01:41:22.958Z,79.12
2023-05-18T01:44:01.616Z,78.92
2023-05-18T01:46:51.208Z,79.17
2023-05-18T01:49:25.205Z,79.16
2023-05-18T01:51:56.725Z,78.89
2023-05-18T01:54:25.266Z,79.08
2023-05-18T01:56:56.476Z,78.83
2023-05-18T01:59:25.617Z,79.17
2023-05-18T02:01:59.662Z,78.62
2023-05-18T02:04:28.586Z,78.89
2023-05-18T02:06:56.807Z,79.06
2023-05-18T02:09:25.034Z,78.76
2023-05-18T02:11:53.243Z,78.68
2023-05-18T02:14:21.661Z,78.64
2023-05-18T02:16:53.414Z,78.40
2023-05-18T02:19:22.550Z,78.67
2023-05-18T02:21:51.333Z,78.49
2023-05-18T02:24:20.267Z,78.41
2023-05-18T02:26:48.394Z,78.43
2023-05-18T02:29:16.499Z,78.43
2023-05-18T02:31:44.762Z,78.12
2023-05-18T02:34:13.039Z,78.16
2023-05-18T02:36:42.861Z,77.73
2023-05-18T02:39:11.292Z,77.84
2023-05-18T02:41:39.407Z,77.88
2023-05-18T02:44:07.676Z,78.01
2023-05-18T02:46:36.146Z,77.80
2023-05-18T02:49:04.273Z,77.69
2023-05-18T02:51:32.491Z,77.93
2023-05-18T02:54:01.810Z,78.07
2023-05-18T02:56:30.745Z,77.92
2023-05-18T02:59:13.214Z,77.96
2023-05-18T03:01:43.949Z,78.59
2023-05-18T03:04:12.259Z,78.45
2023-05-18T03:06:46.708Z,78.57
2023-05-18T03:09:16.333Z,78.43
2023-05-18T03:11:45.351Z,78.63
2023-05-18T03:14:13.675Z,78.48
2023-05-18T03:16:42.407Z,78.66
2023-05-18T03:19:16.264Z,78.75
2023-05-18T03:21:44.894Z,78.60
2023-05-18T03:24:16.416Z,78.88
2023-05-18T03:26:47.648Z,78.96
2023-05-18T03:29:15.840Z,79.03
2023-05-18T03:31:44.571Z,78.97
2023-05-18T03:34:13.178Z,78.99
2023-05-18T03:36:42.716Z,78.93
2023-05-18T03:39:11.428Z,79.20
2023-05-18T03:41:39.749Z,78.79
2023-05-18T03:44:07.873Z,78.68
2023-05-18T03:46:36.745Z,78.79
2023-05-18T03:49:07.221Z,78.72
2023-05-18T03:51:39.352Z,78.85
2023-05-18T03:54:07.580Z,78.55
2023-05-18T03:56:37.298Z,78.58
2023-05-18T03:59:06.730Z,78.51
2023-05-18T04:01:35.083Z,78.55
2023-05-18T04:04:03.444Z,78.88
2023-05-18T04:06:31.699Z,78.67
2023-05-18T04:09:04.898Z,78.79
2023-05-18T04:11:33.146Z,78.33
2023-05-18T04:14:01.308Z,78.27
2023-05-18T04:16:29.538Z,78.37
2023-05-18T04:18:57.731Z,78.54
2023-05-18T04:21:26.160Z,78.38
2023-05-18T04:23:54.346Z,78.28
2023-05-18T04:26:22.465Z,78.21
2023-05-18T04:28:52.294Z,78.01
2023-05-18T04:31:20.707Z,78.07
2023-05-18T04:33:51.640Z,78.30
2023-05-18T04:36:21.332Z,78.29
2023-05-18T04:38:51.095Z,78.12
2023-05-18T04:41:22.867Z,77.69
2023-05-18T04:43:51.752Z,77.18
2023-05-18T04:46:22.466Z,76.69
2023-05-18T04:48:50.696Z,76.73
2023-05-18T04:51:21.914Z,76.31
2023-05-18T04:53:51.302Z,76.07
2023-05-18T04:56:23.394Z,76.10
2023-05-18T04:58:51.816Z,75.98
2023-05-18T05:01:20.065Z,75.59
2023-05-18T05:03:49.809Z,75.47
2023-05-18T05:06:18.175Z,75.30
2023-05-18T05:08:46.494Z,74.83
2023-05-18T05:11:14.625Z,74.84
2023-05-18T05:13:42.834Z,74.93
2023-05-18T05:16:11.677Z,74.88
2023-05-18T05:18:39.853Z,74.31
2023-05-18T05:21:09.594Z,74.00
2023-05-18T05:23:37.828Z,73.69
2023-05-18T05:26:06.344Z,73.77
2023-05-18T05:28:34.460Z,73.40
2023-05-18T05:31:03.199Z,73.29
2023-05-18T05:33:32.002Z,73.53
2023-05-18T05:36:00.039Z,73.30
2023-05-18T05:38:28.144Z,72.84
2023-05-18T05:40:56.665Z,72.38
2023-05-18T05:43:25.088Z,72.42
2023-05-18T05:45:54.420Z,72.13
2023-05-18T05:48:22.841Z,71.00
2023-05-18T05:50:51.156Z,70.61
2023-05-18T05:53:19.993Z,71.13
2023-05-18T05:55:49.800Z,71.25
2023-05-18T05:58:19.326Z,68.83
2023-05-18T06:00:54.773Z,67.22
2023-05-18T06:03:23.209Z,66.86
2023-05-18T06:05:51.720Z,66.28
2023-05-18T06:08:24.584Z,66.13
2023-05-18T06:10:55.276Z,66.01
2023-05-18T06:13:23.505Z,65.31
2023-05-18T06:15:54.945Z,65.25
2023-05-18T06:18:23.858Z,64.85
2023-05-18T06:20:53.079Z,64.95
2023-05-18T06:23:23.856Z,64.11
2023-05-18T06:26:12.598Z,63.52
2023-05-18T06:29:16.247Z,62.81
2023-05-18T06:32:14.538Z,62.94
2023-05-18T06:34:46.310Z,62.60
2023-05-18T06:37:14.528Z,62.98
2023-05-18T06:39:43.250Z,62.45
2023-05-18T06:42:12.578Z,62.20
2023-05-18T06:44:54.046Z,62.25
2023-05-18T06:47:46.319Z,61.67
2023-05-18T06:50:14.563Z,61.78
2023-05-18T06:52:44.819Z,61.90
2023-05-18T06:55:13.649Z,61.24
2023-05-18T06:57:42.042Z,61.46
2023-05-18T07:00:12.677Z,60.85
2023-05-18T07:02:43.453Z,60.73
2023-05-18T07:05:11.825Z,59.96
2023-05-18T07:07:40.366Z,59.95
2023-05-18T07:10:09.058Z,60.17
2023-05-18T07:12:37.280Z,60.57
2023-05-18T07:15:06.312Z,60.45
2023-05-18T07:17:34.439Z,59.71
2023-05-18T07:20:02.644Z,58.71
2023-05-18T07:22:30.762Z,58.28
2023-05-18T07:24:59.381Z,58.21
2023-05-18T07:27:28.514Z,56.75
2023-05-18T07:29:56.634Z,57.08
2023-05-18T07:32:24.747Z,57.23
2023-05-18T07:34:53.771Z,56.56
2023-05-18T07:37:22.263Z,56.21
2023-05-18T07:39:50.522Z,55.82
2023-05-18T07:42:18.541Z,55.29
2023-05-18T07:44:46.650Z,53.80
2023-05-18T07:47:14.970Z,54.20
2023-05-18T07:49:44.299Z,54.58
2023-05-18T07:52:12.417Z,53.91
2023-05-18T07:54:40.435Z,53.41
2023-05-18T07:57:08.758Z,52.46
2023-05-18T07:59:36.880Z,52.14
2023-05-18T08:02:05.725Z,51.96
2023-05-18T08:04:34.117Z,50.82
2023-05-18T08:07:02.353Z,49.46
2023-05-18T08:09:30.867Z,49.21
2023-05-18T08:11:59.085Z,49.11
2023-05-18T08:14:27.209Z,48.44
2023-05-18T08:16:55.471Z,48.82
2023-05-18T08:19:23.946Z,48.55
2023-05-18T08:21:52.263Z,47.52
2023-05-18T08:24:20.382Z,46.83
2023-05-18T08:26:48.506Z,46.12
2023-05-18T08:29:16.727Z,45.36
2023-05-18T08:31:46.359Z,45.37
2023-05-18T08:34:15.879Z,45.15
2023-05-18T08:36:45.991Z,44.37
2023-05-18T08:39:14.327Z,45.60
2023-05-18T08:41:48.561Z,44.16
2023-05-18T08:44:23.341Z,44.09
2023-05-18T08:46:51.727Z,44.23
2023-05-18T08:49:21.990Z,42.94
2023-05-18T08:51:57.078Z,42.84
2023-05-18T08:54:26.321Z,42.05
2023-05-18T08:56:54.841Z,41.73
2023-05-18T08:59:27.981Z,41.34
2023-05-18T09:01:57.161Z,41.85
2023-05-18T09:04:27.382Z,41.08
2023-05-18T09:06:56.757Z,41.55
2023-05-18T09:09:25.982Z,41.28
2023-05-18T09:11:56.947Z,40.82
2023-05-18T09:14:27.085Z,41.18
2023-05-18T09:16:56.154Z,41.61
2023-05-18T09:19:25.158Z,41.11
2023-05-18T09:21:53.512Z,40.25
2023-05-18T09:24:24.374Z,38.13
2023-05-18T09:26:53.480Z,38.02
2023-05-18T09:29:24.252Z,38.37
2023-05-18T09:31:54.510Z,37.55
2023-05-18T09:34:24.852Z,37.28
2023-05-18T09:36:53.575Z,38.18
2023-05-18T09:39:21.783Z,37.98
2023-05-18T09:41:57.636Z,38.48
2023-05-18T09:44:32.403Z,37.27
2023-05-18T09:47:01.392Z,36.79
2023-05-18T09:49:31.321Z,36.61
2023-05-18T09:52:02.254Z,36.87
2023-05-18T09:54:30.379Z,35.40
2023-05-18T09:57:10.153Z,35.69
2023-05-18T09:59:39.277Z,36.16
2023-05-18T10:02:09.141Z,35.19
2023-05-18T10:04:39.117Z,35.37
2023-05-18T10:07:17.598Z,35.33
2023-05-18T10:09:46.819Z,34.55
2023-05-18T10:12:17.422Z,34.12
2023-05-18T10:14:46.448Z,34.39
2023-05-18T10:17:17.280Z,35.03
2023-05-18T10:19:46.737Z,34.65
2023-05-18T10:22:18.174Z,33.84
2023-05-18T10:24:52.809Z,34.93
2023-05-18T10:27:27.019Z,34.83
2023-05-18T10:29:58.761Z,34.87
2023-05-18T10:32:29.918Z,35.57
2023-05-18T10:35:00.129Z,35.58
2023-05-18T10:37:31.064Z,35.68
2023-05-18T10:40:01.884Z,35.44
2023-05-18T10:42:31.989Z,34.97
2023-05-18T10:45:01.802Z,35.57
2023-05-18T10:47:32.387Z,35.49
2023-05-18T10:50:04.586Z,35.58
2023-05-18T10:52:34.202Z,35.71
2023-05-18T10:55:02.425Z,34.95
2023-05-18T10:57:54.125Z,35.30
2023-05-18T11:00:22.552Z,35.69
2023-05-18T11:02:51.506Z,35.61
2023-05-18T11:05:26.936Z,35.46
2023-05-18T11:08:05.694Z,35.81
2023-05-18T11:10:47.210Z,34.84
2023-05-18T11:13:16.133Z,34.27
2023-05-18T11:15:53.670Z,34.37
2023-05-18T11:18:49.830Z,34.70
2023-05-18T11:21:22.569Z,34.97
2023-05-18T11:24:28.622Z,34.99
2023-05-18T11:27:16.133Z,35.12
2023-05-18T11:29:45.443Z,35.15
2023-05-18T11:32:30.417Z,35.06
2023-05-18T11:35:00.196Z,34.80
2023-05-18T11:37:40.301Z,34.59
2023-05-18T11:40:13.847Z,35.25
2023-05-18T11:42:42.270Z,34.56
2023-05-18T11:45:12.372Z,35.38
2023-05-18T11:47:41.698Z,36.51
2023-05-18T11:50:12.462Z,35.14
2023-05-18T11:52:53.424Z,34.44
2023-05-18T11:55:21.928Z,34.91
2023-05-18T11:57:53.793Z,34.91
2023-05-18T12:00:24.386Z,35.46
2023-05-18T12:02:56.079Z,35.07
2023-05-18T12:05:24.537Z,35.78
2023-05-18T12:07:56.067Z,35.93
2023-05-18T12:10:24.291Z,35.52
2023-05-18T12:12:53.717Z,35.99
2023-05-18T12:15:23.359Z,36.58
2023-05-18T12:17:51.952Z,36.77
2023-05-18T12:20:28.629Z,36.88
2023-05-18T12:22:57.206Z,36.45
2023-05-18T12:25:27.172Z,36.65
2023-05-18T12:27:57.265Z,36.29
2023-05-18T12:30:46.110Z,37.08
2023-05-18T12:33:14.372Z,36.72
2023-05-18T12:35:42.829Z,36.69
2023-05-18T12:38:11.946Z,36.28
2023-05-18T12:40:48.880Z,36.26
2023-05-18T12:43:17.929Z,36.52
2023-05-18T12:45:46.445Z,36.82
2023-05-18T12:48:15.359Z,36.94
2023-05-18T12:50:50.944Z,36.36
2023-05-18T12:53:19.935Z,36.24
2023-05-18T12:56:14.750Z,36.87
2023-05-18T12:58:55.999Z,36.61
2023-05-18T13:01:28.231Z,36.68
2023-05-18T13:03:58.589Z,36.28
2023-05-18T13:06:27.001Z,36.45
2023-05-18T13:08:58.537Z,36.86
2023-05-18T13:11:27.997Z,37.26
2023-05-18T13:14:03.529Z,36.82
2023-05-18T13:16:34.371Z,36.55
2023-05-18T13:19:05.602Z,36.82
2023-05-18T13:21:34.701Z,36.21
2023-05-18T13:24:06.218Z,36.30
2023-05-18T13:26:34.335Z,36.63
2023-05-18T13:29:02.681Z,36.78
2023-05-18T13:31:31.033Z,36.84
2023-05-18T13:33:59.198Z,36.66
2023-05-18T13:36:29.923Z,36.61
2023-05-18T13:38:58.461Z,36.19
2023-05-18T13:41:27.176Z,36.68
2023-05-18T13:43:55.330Z,36.73
2023-05-18T13:46:23.562Z,36.94
2023-05-18T13:48:51.738Z,36.83
2023-05-18T13:51:19.912Z,36.32
2023-05-18T13:53:48.177Z,36.42
2023-05-18T13:56:16.612Z,36.17
2023-05-18T13:58:44.941Z,36.85
2023-05-18T14:01:14.409Z,36.52
2023-05-18T14:03:42.918Z,36.60
2023-05-18T14:06:11.391Z,37.01
2023-05-18T14:08:39.522Z,36.61
2023-05-18T14:11:07.523Z,36.29
2023-05-18T14:13:35.787Z,36.14
2023-05-18T14:16:04.569Z,36.13
2023-05-18T14:18:32.791Z,36.13
2023-05-18T14:21:02.515Z,36.43
2023-05-18T14:23:30.832Z,36.80
2023-05-18T14:25:59.063Z,35.67
2023-05-18T14:28:27.082Z,36.03
2023-05-18T14:30:55.231Z,36.66
2023-05-18T14:33:23.449Z,36.51
2023-05-18T14:35:51.533Z,37.06
2023-05-18T14:38:19.653Z,37.25
2023-05-18T14:40:47.772Z,37.26
2023-05-18T14:43:15.789Z,37.51
2023-05-18T14:45:48.394Z,36.81
2023-05-18T14:48:21.762Z,37.17
2023-05-18T14:50:49.793Z,37.15
2023-05-18T14:53:17.907Z,36.92
2023-05-18T14:55:46.128Z,37.06
2023-05-18T14:58:15.152Z,36.79
2023-05-18T15:00:43.970Z,36.96
2023-05-18T15:03:12.310Z,36.76
2023-05-18T15:05:40.845Z,36.57
2023-05-18T15:08:09.033Z,36.94
2023-05-18T15:10:37.270Z,37.24
2023-05-18T15:13:05.774Z,36.90
2023-05-18T15:15:34.194Z,36.78
2023-05-18T15:18:02.459Z,36.70
2023-05-18T15:20:31.036Z,37.02
2023-05-18T15:23:00.137Z,36.53
2023-05-18T15:25:30.085Z,36.70
2023-05-18T15:27:58.311Z,36.66
2023-05-18T15:30:29.022Z,37.09
2023-05-18T15:32:57.943Z,36.98
2023-05-18T15:35:26.482Z,37.26
2023-05-18T15:37:54.903Z,37.36
2023-05-18T15:40:23.429Z,37.49
2023-05-18T15:42:51.946Z,37.83
2023-05-18T15:45:20.363Z,38.18
2023-05-18T15:47:48.616Z,38.13
2023-05-18T15:50:16.707Z,38.29
2023-05-18T15:52:44.740Z,38.07
2023-05-18T15:55:13.758Z,38.13
2023-05-18T15:57:42.369Z,37.82
2023-05-18T16:00:11.126Z,37.95
2023-05-18T16:02:42.482Z,38.21
2023-05-18T16:05:10.849Z,38.52
2023-05-18T16:07:41.383Z,38.71
2023-05-18T16:10:09.492Z,39.14
2023-05-18T16:12:37.623Z,39.53
2023-05-18T16:15:06.440Z,39.84
2023-05-18T16:17:34.660Z,40.27
2023-05-18T16:20:04.011Z,40.56
2023-05-18T16:22:32.300Z,40.75
2023-05-18T16:25:00.423Z,40.77
2023-05-18T16:27:28.545Z,40.81
2023-05-18T16:29:56.664Z,41.02
2023-05-18T16:32:25.002Z,41.39
2023-05-18T16:34:53.321Z,41.57
2023-05-18T16:37:21.368Z,41.66
2023-05-18T16:39:49.545Z,42.03
2023-05-18T16:42:18.671Z,41.66
2023-05-18T16:44:46.792Z,42.07
2023-05-18T16:47:14.901Z,42.54
2023-05-18T16:49:45.676Z,42.93
2023-05-18T16:52:16.007Z,43.16
2023-05-18T16:54:45.287Z,43.16
2023-05-18T16:57:13.420Z,43.56
2023-05-18T16:59:41.631Z,43.98
2023-05-18T17:02:17.772Z,44.54
2023-05-18T17:04:46.248Z,45.07
2023-05-18T17:07:14.418Z,45.70
2023-05-18T17:09:43.044Z,46.18
2023-05-18T17:12:12.125Z,46.48
2023-05-18T17:14:40.197Z,46.97
2023-05-18T17:17:08.701Z,47.69
2023-05-18T17:19:36.902Z,48.40
2023-05-18T17:22:06.297Z,48.88
2023-05-18T17:24:34.468Z,49.48
2023-05-18T17:27:03.694Z,50.25
2023-05-18T17:29:31.910Z,50.54
2023-05-18T17:32:00.203Z,50.91
2023-05-18T17:34:30.756Z,51.83
2023-05-18T17:36:58.989Z,52.19
2023-05-18T17:39:27.023Z,52.74
2023-05-18T17:41:55.632Z,53.26
2023-05-18T17:44:23.848Z,53.56
2023-05-18T17:46:52.586Z,54.15
2023-05-18T17:49:21.081Z,54.42
2023-05-18T17:51:49.309Z,55.12
2023-05-18T17:54:17.427Z,55.28
2023-05-18T17:56:45.643Z,55.68
2023-05-18T17:59:13.884Z,55.97
2023-05-18T18:01:43.308Z,56.39
2023-05-18T18:04:11.873Z,56.66
2023-05-18T18:06:40.230Z,57.09
2023-05-18T18:09:09.054Z,57.58
2023-05-18T18:11:37.983Z,57.73
2023-05-18T18:14:06.399Z,58.30
2023-05-18T18:16:34.722Z,58.80
2023-05-18T18:19:03.138Z,58.98
2023-05-18T18:21:31.667Z,59.29
2023-05-18T18:24:01.390Z,59.69
2023-05-18T18:26:30.212Z,59.96
2023-05-18T18:28:58.428Z,59.86
2023-05-18T18:31:27.027Z,60.50
2023-05-18T18:33:55.272Z,60.76
2023-05-18T18:36:25.679Z,61.15
2023-05-18T18:38:54.625Z,61.48
2023-05-18T18:41:23.148Z,61.99
2023-05-18T18:43:54.186Z,61.98
2023-05-18T18:46:22.648Z,62.30
2023-05-18T18:48:50.920Z,62.48
2023-05-18T18:51:19.043Z,62.13
2023-05-18T18:53:47.358Z,61.99
2023-05-18T18:56:15.983Z,62.67
2023-05-18T18:58:44.102Z,62.80
2023-05-18T19:01:12.436Z,63.21
2023-05-18T19:03:40.643Z,63.49
2023-05-18T19:06:08.758Z,63.60
2023-05-18T19:08:37.097Z,63.69
2023-05-18T19:11:05.201Z,63.79
2023-05-18T19:13:33.341Z,64.14
2023-05-18T19:16:01.665Z,64.15
2023-05-18T19:18:29.762Z,64.37
2023-05-18T19:21:01.538Z,64.40
2023-05-18T19:23:29.811Z,64.80
2023-05-18T19:25:59.751Z,64.86
2023-05-18T19:28:27.966Z,65.04
2023-05-18T19:30:56.195Z,64.79
2023-05-18T19:33:24.315Z,64.84
2023-05-18T19:35:54.568Z,65.06
2023-05-18T19:38:22.748Z,64.73
2023-05-18T19:40:51.166Z,64.81
2023-05-18T19:43:19.294Z,64.95
2023-05-18T19:45:50.080Z,64.88
2023-05-18T19:48:18.238Z,65.17
2023-05-18T19:50:46.370Z,65.43
2023-05-18T19:53:14.414Z,65.75
2023-05-18T19:55:43.002Z,66.37
2023-05-18T19:58:11.119Z,66.59
2023-05-18T20:00:41.745Z,66.57
2023-05-18T20:03:10.691Z,66.73
2023-05-18T20:05:38.990Z,67.24
2023-05-18T20:08:10.217Z,67.16
2023-05-18T20:10:39.144Z,67.60
2023-05-18T20:13:07.201Z,67.74
2023-05-18T20:15:37.313Z,68.35
2023-05-18T20:18:07.033Z,69.12
2023-05-18T20:20:35.887Z,69.14
2023-05-18T20:23:06.937Z,70.45
2023-05-18T20:25:35.477Z,70.88
2023-05-18T20:28:07.836Z,70.77
2023-05-18T20:30:36.457Z,70.85
2023-05-18T20:33:05.550Z,71.45
2023-05-18T20:35:34.294Z,71.58
2023-05-18T20:38:04.576Z,71.43
2023-05-18T20:40:33.134Z,71.47
2023-05-18T20:43:02.460Z,71.38
2023-05-18T20:45:31.665Z,71.34
2023-05-18T20:48:00.483Z,71.16
2023-05-18T20:50:29.415Z,71.05
2023-05-18T20:52:57.858Z,70.80
2023-05-18T20:55:26.684Z,71.00
2023-05-18T20:57:54.893Z,70.91
2023-05-18T21:00:23.027Z,71.24
2023-05-18T21:02:51.238Z,72.08
2023-05-18T21:05:20.156Z,72.23
2023-05-18T21:07:50.392Z,71.92
2023-05-18T21:10:18.504Z,72.04
2023-05-18T21:12:46.931Z,72.06
2023-05-18T21:15:15.046Z,72.24
2023-05-18T21:17:43.189Z,72.30
2023-05-18T21:20:12.091Z,72.65
2023-05-18T21:22:40.213Z,72.69
2023-05-18T21:25:09.132Z,72.47
2023-05-18T21:27:37.569Z,72.22
2023-05-18T21:30:06.570Z,71.99
2023-05-18T21:32:34.920Z,71.85
2023-05-18T21:35:03.443Z,71.83
2023-05-18T21:37:31.545Z,71.76
2023-05-18T21:39:59.774Z,71.81
2023-05-18T21:42:27.999Z,72.13
2023-05-18T21:44:56.104Z,72.29
2023-05-18T21:47:24.341Z,72.08
2023-05-18T21:49:52.444Z,72.48
2023-05-18T21:52:20.638Z,72.61
2023-05-18T21:54:48.785Z,72.80
2023-05-18T21:57:16.905Z,72.72
2023-05-18T21:59:45.031Z,72.60
2023-05-18T22:02:13.149Z,72.48
2023-05-18T22:04:41.413Z,72.40
2023-05-18T22:07:09.590Z,72.22
2023-05-18T22:09:37.704Z,71.88
2023-05-18T22:12:06.612Z,72.12
2023-05-18T22:14:34.757Z,72.02
2023-05-18T22:17:03.217Z,71.88
2023-05-18T22:19:31.390Z,72.00
2023-05-18T22:22:01.626Z,72.18
2023-05-18T22:24:29.942Z,72.00
2023-05-18T22:26:58.059Z,71.72
2023-05-18T22:29:26.489Z,71.70
2023-05-18T22:31:54.753Z,71.29
2023-05-18T22:34:23.024Z,71.46
2023-05-18T22:36:51.337Z,71.37
2023-05-18T22:39:19.859Z,71.08
2023-05-18T22:41:47.877Z,70.91
2023-05-18T22:44:16.195Z,70.93
2023-05-18T22:46:44.405Z,70.74
2023-05-18T22:49:12.739Z,70.85
2023-05-18T22:51:41.054Z,70.98
2023-05-18T22:54:09.282Z,71.15
2023-05-18T22:56:37.396Z,70.99
2023-05-18T22:59:07.341Z,70.97
2023-05-18T23:01:37.946Z,70.67
2023-05-18T23:04:06.640Z,70.60
2023-05-18T23:06:34.797Z,70.33
2023-05-18T23:09:02.915Z,70.42
2023-05-18T23:11:31.243Z,70.29
2023-05-18T23:14:02.886Z,70.33
2023-05-18T23:16:31.132Z,70.51
2023-05-18T23:19:01.947Z,70.33
2023-05-18T23:21:31.648Z,70.07
2023-05-18T23:23:59.964Z,69.70
2023-05-18T23:26:28.205Z,69.29
2023-05-18T23:28:56.511Z,69.20
2023-05-18T23:31:24.827Z,69.02
2023-05-18T23:33:53.471Z,68.88
2023-05-18T23:36:22.203Z,68.99
2023-05-18T23:38:51.895Z,68.83
2023-05-18T23:41:20.614Z,68.54
2023-05-18T23:43:49.444Z,68.28
2023-05-18T23:46:18.094Z,67.86
2023-05-18T23:48:46.903Z,67.83
2023-05-18T23:51:16.940Z,67.59
2023-05-18T23:53:50.271Z,67.58
2023-05-18T23:56:19.172Z,67.53
2023-05-18T23:58:47.997Z,67.56
